createdAt,value
2019-01-21T00:00:33.979Z,12.00
2019-01-21T00:03:02.635Z,11.67
2019-01-21T00:05:31.229Z,12.13
2019-01-21T00:08:00.080Z,12.20
2019-01-21T00:10:28.935Z,13.10
2019-01-21T00:12:57.794Z,13.13
2019-01-21T00:15:26.393Z,11.40
2019-01-21T00:17:54.964Z,12.97
2019-01-21T00:20:23.791Z,13.20
2019-01-21T00:22:52.471Z,13.20
2019-01-21T00:25:21.050Z,12.00
2019-01-21T00:27:49.904Z,13.17
2019-01-21T00:30:18.976Z,13.10
2019-01-21T00:32:47.819Z,13.20
2019-01-21T00:35:16.477Z,12.87
2019-01-21T00:37:46.183Z,13.63
2019-01-21T00:40:15.133Z,13.33
2019-01-21T00:42:46.604Z,12.93
2019-01-21T00:45:15.231Z,13.60
2019-01-21T00:47:49.729Z,14.47
2019-01-21T00:50:18.370Z,13.10
2019-01-21T00:52:46.976Z,12.90
2019-01-21T00:55:15.831Z,12.67
2019-01-21T00:57:44.426Z,13.60
2019-01-21T01:00:23.931Z,12.73
2019-01-21T01:02:52.760Z,13.60
2019-01-21T01:05:21.688Z,14.50
2019-01-21T01:07:50.291Z,13.60
2019-01-21T01:10:19.135Z,13.37
2019-01-21T01:12:47.732Z,13.00
2019-01-21T01:15:16.312Z,13.40
2019-01-21T01:17:44.900Z,13.00
2019-01-21T01:20:15.650Z,13.53
2019-01-21T01:22:44.522Z,13.93
2019-01-21T01:25:13.364Z,13.60
2019-01-21T01:27:41.973Z,13.73
2019-01-21T01:30:12.339Z,13.13
2019-01-21T01:32:40.920Z,13.77
2019-01-21T01:35:10.361Z,13.00
2019-01-21T01:37:39.235Z,13.30
2019-01-21T01:40:10.649Z,13.60
2019-01-21T01:42:39.512Z,13.53
2019-01-21T01:45:09.176Z,13.20
2019-01-21T01:47:44.491Z,14.30
2019-01-21T01:50:08.496Z,13.63
2019-01-21T01:52:37.147Z,13.93
2019-01-21T01:55:07.126Z,13.67
2019-01-21T01:57:35.970Z,13.37
2019-01-21T02:00:09.047Z,13.70
2019-01-21T02:02:37.825Z,13.60
2019-01-21T02:05:06.628Z,14.57
2019-01-21T02:07:35.203Z,13.90
2019-01-21T02:10:04.426Z,13.97
2019-01-21T02:12:33.568Z,13.40
2019-01-21T02:15:02.675Z,12.67
2019-01-21T02:17:31.319Z,13.83
2019-01-21T02:19:59.901Z,13.93
2019-01-21T02:22:28.735Z,13.97
2019-01-21T02:25:00.789Z,14.33
2019-01-21T02:27:58.468Z,13.33
2019-01-21T02:30:58.735Z,14.00
2019-01-21T02:33:57.236Z,14.23
2019-01-21T02:37:01.907Z,13.70
2019-01-21T02:39:49.569Z,15.50
2019-01-21T02:42:36.171Z,14.40
2019-01-21T02:45:27.259Z,13.43
2019-01-21T02:48:05.724Z,14.67
2019-01-21T02:50:49.927Z,14.03
2019-01-21T02:53:42.355Z,13.83
2019-01-21T02:56:32.621Z,14.30
2019-01-21T02:59:10.393Z,14.30
2019-01-21T03:02:47.424Z,14.60
2019-01-21T03:05:57.215Z,13.33
2019-01-21T03:08:49.492Z,13.67
2019-01-21T03:11:59.568Z,13.87
2019-01-21T03:15:06.736Z,14.73
2019-01-21T03:18:08.721Z,14.20
2019-01-21T03:21:12.559Z,14.47
2019-01-21T03:24:16.987Z,13.93
2019-01-21T03:27:13.169Z,13.63
2019-01-21T03:30:06.873Z,14.20
2019-01-21T03:33:05.608Z,14.50
2019-01-21T03:36:04.972Z,13.30
2019-01-21T03:39:20.740Z,15.60
2019-01-21T03:41:59.952Z,14.40
2019-01-21T03:44:50.376Z,14.73
2019-01-21T03:47:29.845Z,14.83
2019-01-21T03:50:20.102Z,14.87
2019-01-21T03:53:19.591Z,13.60
2019-01-21T03:55:49.993Z,15.20
2019-01-21T03:58:30.400Z,15.60
2019-01-21T04:01:08.063Z,14.50
2019-01-21T04:04:05.761Z,14.83
2019-01-21T04:07:12.940Z,15.13
2019-01-21T04:10:27.773Z,14.93
2019-01-21T04:13:07.872Z,15.17
2019-01-21T04:16:04.483Z,15.53
2019-01-21T04:18:54.100Z,14.33
2019-01-21T04:21:47.026Z,14.10
2019-01-21T04:24:45.725Z,15.63
2019-01-21T04:27:38.016Z,14.27
2019-01-21T04:30:34.433Z,14.10
2019-01-21T04:33:31.928Z,14.07
2019-01-21T04:36:22.944Z,15.20
2019-01-21T04:39:45.204Z,13.70
2019-01-21T04:42:49.346Z,15.40
2019-01-21T04:45:56.422Z,14.67
2019-01-21T04:48:56.738Z,15.73
2019-01-21T04:52:04.021Z,16.20
2019-01-21T04:55:05.744Z,15.10
2019-01-21T04:57:57.207Z,16.13
2019-01-21T05:00:44.756Z,15.27
2019-01-21T05:04:02.576Z,15.53
2019-01-21T05:06:59.688Z,15.73
2019-01-21T05:10:01.256Z,16.47
2019-01-21T05:13:05.115Z,14.73
2019-01-21T05:15:49.528Z,14.83
2019-01-21T05:18:49.282Z,15.03
2019-01-21T05:22:01.123Z,14.53
2019-01-21T05:25:11.107Z,15.53
2019-01-21T05:28:20.317Z,15.47
2019-01-21T05:31:20.739Z,14.50
2019-01-21T05:34:49.128Z,15.57
2019-01-21T05:37:52.433Z,14.07
2019-01-21T05:40:49.511Z,15.13
2019-01-21T05:43:41.207Z,14.83
2019-01-21T05:46:33.865Z,14.50
2019-01-21T05:49:36.156Z,15.93
2019-01-21T05:52:49.559Z,15.30
2019-01-21T05:56:03.372Z,15.00
2019-01-21T05:58:57.112Z,14.33
2019-01-21T06:01:59.908Z,14.20
2019-01-21T06:05:05.661Z,14.97
2019-01-21T06:08:11.481Z,15.47
2019-01-21T06:10:49.273Z,14.37
2019-01-21T06:13:47.854Z,14.60
2019-01-21T06:16:45.096Z,14.27
2019-01-21T06:19:44.848Z,15.13
2019-01-21T06:22:44.258Z,15.50
2019-01-21T06:25:47.332Z,14.67
2019-01-21T06:28:55.848Z,14.83
2019-01-21T06:32:03.965Z,16.03
2019-01-21T06:35:00.773Z,15.27
2019-01-21T06:38:35.059Z,14.77
2019-01-21T06:41:51.291Z,14.93
2019-01-21T06:45:01.280Z,14.80
2019-01-21T06:47:49.436Z,15.43
2019-01-21T06:50:42.092Z,14.03
2019-01-21T06:54:07.188Z,14.57
2019-01-21T06:57:14.376Z,14.77
2019-01-21T07:00:08.043Z,14.20
2019-01-21T07:02:59.805Z,14.67
2019-01-21T07:06:11.051Z,13.77
2019-01-21T07:09:20.466Z,14.93
2019-01-21T07:12:10.750Z,14.97
2019-01-21T07:15:36.292Z,15.47
2019-01-21T07:18:28.401Z,15.07
2019-01-21T07:21:29.396Z,14.50
2019-01-21T07:24:23.524Z,14.50
2019-01-21T07:27:39.741Z,14.03
2019-01-21T07:30:53.847Z,15.23
2019-01-21T07:34:05.703Z,14.63
2019-01-21T07:36:51.431Z,15.00
2019-01-21T07:40:02.915Z,15.50
2019-01-21T07:43:07.031Z,15.13
2019-01-21T07:45:52.080Z,14.40
2019-01-21T07:49:00.790Z,15.07
2019-01-21T07:52:01.140Z,15.87
2019-01-21T07:55:01.388Z,15.07
2019-01-21T07:57:55.253Z,14.60
2019-01-21T08:00:48.613Z,15.10
2019-01-21T08:04:26.316Z,15.60
2019-01-21T08:07:36.539Z,15.47
2019-01-21T08:10:30.308Z,14.77
2019-01-21T08:13:21.216Z,15.67
2019-01-21T08:16:24.067Z,15.30
2019-01-21T08:19:25.800Z,15.70
2019-01-21T08:22:17.560Z,15.23
2019-01-21T08:25:36.739Z,16.20
2019-01-21T08:28:40.744Z,14.53
2019-01-21T08:31:19.805Z,16.87
2019-01-21T08:34:08.997Z,16.03
2019-01-21T08:36:56.719Z,15.20
2019-01-21T08:40:10.971Z,16.70
2019-01-21T08:43:21.726Z,16.47
2019-01-21T08:46:52.723Z,15.07
2019-01-21T08:49:53.688Z,16.03
2019-01-21T08:52:43.536Z,16.53
2019-01-21T08:55:50.020Z,16.60
2019-01-21T08:58:53.600Z,15.07
2019-01-21T09:01:45.404Z,14.97
2019-01-21T09:04:48.254Z,15.33
2019-01-21T09:07:57.001Z,15.90
2019-01-21T09:11:05.113Z,16.20
2019-01-21T09:14:13.020Z,15.87
2019-01-21T09:17:01.366Z,16.73
2019-01-21T09:20:10.882Z,16.53
2019-01-21T09:23:08.048Z,16.13
2019-01-21T09:26:09.617Z,16.20
2019-01-21T09:28:55.384Z,16.50
2019-01-21T09:32:01.144Z,17.00
2019-01-21T09:34:58.392Z,15.53
2019-01-21T09:38:17.252Z,16.60
2019-01-21T09:41:23.175Z,17.80
2019-01-21T09:44:23.633Z,16.43
2019-01-21T09:46:51.868Z,16.53
2019-01-21T09:49:19.328Z,16.93
2019-01-21T09:51:54.304Z,16.50
2019-01-21T09:54:23.085Z,16.87
2019-01-21T09:56:56.548Z,15.63
2019-01-21T09:59:25.314Z,17.40
2019-01-21T10:01:58.303Z,18.00
2019-01-21T10:04:42.939Z,16.77
2019-01-21T10:07:17.772Z,17.97
2019-01-21T10:10:36.095Z,16.00
2019-01-21T10:13:59.231Z,16.80
2019-01-21T10:17:09.767Z,15.40
2019-01-21T10:20:00.976Z,15.70
2019-01-21T10:22:43.399Z,16.03
2019-01-21T10:25:47.471Z,16.37
2019-01-21T10:28:32.493Z,15.63
2019-01-21T10:31:37.276Z,16.27
2019-01-21T10:34:23.729Z,16.37
2019-01-21T10:37:55.184Z,15.50
2019-01-21T10:40:42.824Z,16.20
2019-01-21T10:43:47.071Z,15.47
2019-01-21T10:46:48.992Z,16.03
2019-01-21T10:49:40.800Z,16.23
2019-01-21T10:52:37.259Z,15.50
2019-01-21T10:55:59.383Z,16.80
2019-01-21T10:58:54.584Z,16.20
2019-01-21T11:01:54.656Z,16.17
2019-01-21T11:04:46.149Z,15.50
2019-01-21T11:07:48.428Z,16.60
2019-01-21T11:10:26.621Z,15.13
2019-01-21T11:13:33.958Z,14.27
2019-01-21T11:16:17.892Z,14.53
2019-01-21T11:19:07.124Z,15.60
2019-01-21T11:21:50.463Z,15.03
2019-01-21T11:24:48.898Z,15.47
2019-01-21T11:27:53.859Z,15.13
2019-01-21T11:31:08.683Z,14.37
2019-01-21T11:34:25.285Z,14.53
2019-01-21T11:37:32.537Z,13.73
2019-01-21T11:40:19.597Z,13.67
2019-01-21T11:43:44.647Z,13.40
2019-01-21T11:46:24.947Z,13.30
2019-01-21T11:49:25.361Z,14.57
2019-01-21T11:52:18.908Z,13.27
2019-01-21T11:55:30.525Z,14.20
2019-01-21T11:58:35.334Z,13.90
2019-01-21T12:01:42.156Z,13.43
2019-01-21T12:04:53.709Z,13.77
2019-01-21T12:07:47.947Z,13.90
2019-01-21T12:10:58.254Z,15.33
2019-01-21T12:13:55.420Z,13.23
2019-01-21T12:16:40.632Z,15.33
2019-01-21T12:19:21.669Z,14.10
2019-01-21T12:22:37.699Z,15.23
2019-01-21T12:25:33.572Z,13.33
2019-01-21T12:28:22.764Z,13.10
2019-01-21T12:31:37.006Z,15.13
2019-01-21T12:34:34.528Z,14.13
2019-01-21T12:37:34.986Z,13.60
2019-01-21T12:40:43.005Z,13.13
2019-01-21T12:43:39.745Z,14.73
2019-01-21T12:46:49.614Z,13.33
2019-01-21T12:49:54.237Z,13.47
2019-01-21T12:52:34.479Z,13.23
2019-01-21T12:55:40.903Z,13.13
2019-01-21T12:58:34.596Z,14.10
2019-01-21T13:01:46.268Z,13.70
2019-01-21T13:04:51.968Z,12.67
2019-01-21T13:07:48.379Z,14.10
2019-01-21T13:10:39.491Z,13.30
2019-01-21T13:13:52.637Z,12.73
2019-01-21T13:16:41.836Z,13.00
2019-01-21T13:19:38.332Z,13.10
2019-01-21T13:22:21.824Z,13.30
2019-01-21T13:25:31.843Z,13.07
2019-01-21T13:28:38.283Z,13.03
2019-01-21T13:31:34.772Z,13.47
2019-01-21T13:34:36.799Z,14.90
2019-01-21T13:37:38.780Z,13.57
2019-01-21T13:40:49.144Z,13.40
2019-01-21T13:43:38.500Z,13.33
2019-01-21T13:46:30.703Z,13.20
2019-01-21T13:49:27.833Z,12.90
2019-01-21T13:52:33.538Z,12.40
2019-01-21T13:55:27.487Z,12.93
2019-01-21T13:58:37.845Z,12.97
2019-01-21T14:01:28.612Z,12.70
2019-01-21T14:04:24.938Z,12.50
2019-01-21T14:07:33.540Z,12.87
2019-01-21T14:10:29.378Z,12.87
2019-01-21T14:13:42.640Z,11.30
2019-01-21T14:16:54.861Z,12.50
2019-01-21T14:19:51.861Z,12.33
2019-01-21T14:22:45.033Z,11.80
2019-01-21T14:25:51.781Z,12.50
2019-01-21T14:28:51.270Z,11.73
2019-01-21T14:31:46.896Z,12.27
2019-01-21T14:34:57.646Z,12.30
2019-01-21T14:38:19.559Z,12.10
2019-01-21T14:41:33.548Z,12.53
2019-01-21T14:44:33.064Z,12.50
2019-01-21T14:47:51.824Z,12.67
2019-01-21T14:50:51.747Z,11.90
2019-01-21T14:53:53.061Z,12.03
2019-01-21T14:56:34.323Z,11.50
2019-01-21T14:59:14.721Z,12.40
2019-01-21T15:01:53.151Z,11.70
2019-01-21T15:04:47.110Z,11.00
2019-01-21T15:07:28.728Z,11.67
2019-01-21T15:10:59.834Z,11.60
2019-01-21T15:13:57.439Z,12.13
2019-01-21T15:17:03.425Z,10.90
2019-01-21T15:19:54.444Z,12.07
2019-01-21T15:22:48.371Z,11.40
2019-01-21T15:26:07.168Z,11.30
2019-01-21T15:28:58.509Z,11.13
2019-01-21T15:32:23.886Z,11.43
2019-01-21T15:35:47.608Z,10.43
2019-01-21T15:38:59.165Z,10.90
2019-01-21T15:42:15.474Z,11.17
2019-01-21T15:45:19.351Z,11.87
2019-01-21T15:48:29.803Z,11.17
2019-01-21T15:51:39.873Z,10.30
2019-01-21T15:54:36.864Z,10.10
2019-01-21T15:57:28.440Z,10.30
2019-01-21T16:00:24.368Z,10.90
2019-01-21T16:03:36.091Z,10.23
2019-01-21T16:06:28.447Z,11.20
2019-01-21T16:09:34.031Z,10.33
2019-01-21T16:12:31.316Z,10.73
2019-01-21T16:15:11.476Z,10.63
2019-01-21T16:18:13.330Z,10.67
2019-01-21T16:21:12.940Z,10.50
2019-01-21T16:24:00.861Z,9.90
2019-01-21T16:26:35.897Z,9.73
2019-01-21T16:29:12.992Z,10.67
2019-01-21T16:32:41.148Z,9.80
2019-01-21T16:35:50.885Z,10.20
2019-01-21T16:38:41.618Z,9.80
2019-01-21T16:42:02.506Z,10.23
2019-01-21T16:44:31.086Z,10.97
2019-01-21T16:46:59.669Z,10.37
2019-01-21T16:49:28.531Z,10.10
2019-01-21T16:51:57.390Z,10.20
2019-01-21T16:54:25.976Z,9.50
2019-01-21T16:56:55.058Z,9.50
2019-01-21T16:59:24.156Z,10.50
2019-01-21T17:01:52.737Z,10.80
2019-01-21T17:04:21.336Z,9.00
2019-01-21T17:06:49.925Z,10.50
2019-01-21T17:09:18.521Z,10.00
2019-01-21T17:11:47.106Z,10.53
2019-01-21T17:14:15.689Z,9.73
2019-01-21T17:16:44.275Z,10.07
2019-01-21T17:19:12.868Z,9.80
2019-01-21T17:21:41.468Z,10.10
2019-01-21T17:24:10.080Z,10.10
2019-01-21T17:26:38.692Z,9.70
2019-01-21T17:29:07.276Z,9.60
2019-01-21T17:31:35.896Z,9.63
2019-01-21T17:34:04.632Z,9.17
2019-01-21T17:36:33.263Z,9.47
2019-01-21T17:39:01.946Z,10.10
2019-01-21T17:41:30.537Z,10.60
2019-01-21T17:43:59.771Z,9.60
2019-01-21T17:46:28.354Z,9.10
2019-01-21T17:48:57.017Z,10.37
2019-01-21T17:51:25.657Z,10.23
2019-01-21T17:53:54.276Z,10.27
2019-01-21T17:56:22.876Z,9.93
2019-01-21T17:58:51.588Z,9.90
2019-01-21T18:01:20.473Z,10.03
2019-01-21T18:03:49.165Z,9.50
2019-01-21T18:06:18.069Z,9.90
2019-01-21T18:08:46.685Z,9.70
2019-01-21T18:11:15.816Z,9.87
2019-01-21T18:13:44.706Z,9.87
2019-01-21T18:16:13.409Z,10.10
2019-01-21T18:18:42.049Z,10.33
2019-01-21T18:21:10.664Z,8.57
2019-01-21T18:23:39.523Z,10.33
2019-01-21T18:26:08.257Z,10.40
2019-01-21T18:28:37.122Z,10.63
2019-01-21T18:31:05.830Z,9.87
2019-01-21T18:33:34.591Z,9.33
2019-01-21T18:36:03.277Z,9.80
2019-01-21T18:38:32.001Z,9.80
2019-01-21T18:41:02.546Z,9.57
2019-01-21T18:43:42.280Z,10.20
2019-01-21T18:46:12.723Z,9.60
2019-01-21T18:48:41.713Z,9.70
2019-01-21T18:51:10.767Z,10.20
2019-01-21T18:53:44.668Z,10.10
2019-01-21T18:56:13.626Z,10.17
2019-01-21T18:58:46.304Z,10.37
2019-01-21T19:01:15.345Z,10.40
2019-01-21T19:03:44.444Z,10.13
2019-01-21T19:06:13.557Z,9.63
2019-01-21T19:08:42.579Z,11.10
2019-01-21T19:11:11.510Z,10.63
2019-01-21T19:13:40.473Z,9.90
2019-01-21T19:16:09.221Z,10.97
2019-01-21T19:18:38.256Z,9.60
2019-01-21T19:21:07.267Z,10.80
2019-01-21T19:23:36.042Z,10.30
2019-01-21T19:26:04.960Z,10.10
2019-01-21T19:28:34.295Z,10.10
2019-01-21T19:31:02.969Z,10.13
2019-01-21T19:33:32.305Z,9.80
2019-01-21T19:36:01.006Z,10.47
2019-01-21T19:38:29.769Z,9.93
2019-01-21T19:40:58.895Z,9.77
2019-01-21T19:43:32.591Z,10.00
2019-01-21T19:46:01.692Z,10.00
2019-01-21T19:48:30.442Z,10.13
2019-01-21T19:50:59.329Z,10.17
2019-01-21T19:53:28.338Z,9.70
2019-01-21T19:55:57.059Z,9.93
2019-01-21T19:58:25.889Z,10.03
2019-01-21T20:00:54.594Z,10.30
2019-01-21T20:03:23.261Z,10.70
2019-01-21T20:05:52.040Z,10.40
2019-01-21T20:08:20.764Z,10.77
2019-01-21T20:10:49.453Z,10.17
2019-01-21T20:13:18.452Z,10.90
2019-01-21T20:15:47.141Z,10.20
2019-01-21T20:18:16.215Z,10.23
2019-01-21T20:20:45.183Z,10.60
2019-01-21T20:23:14.287Z,11.00
2019-01-21T20:25:43.272Z,9.90
2019-01-21T20:28:11.986Z,10.07
2019-01-21T20:30:41.928Z,9.50
2019-01-21T20:33:11.141Z,9.80
2019-01-21T20:35:39.763Z,10.30
2019-01-21T20:38:08.604Z,10.03
2019-01-21T20:40:37.225Z,10.60
2019-01-21T20:43:06.068Z,9.40
2019-01-21T20:45:35.462Z,10.00
2019-01-21T20:48:04.044Z,9.63
2019-01-21T20:50:32.649Z,10.33
2019-01-21T20:53:01.257Z,9.67
2019-01-21T20:55:29.882Z,10.10
2019-01-21T20:57:58.476Z,9.67
2019-01-21T21:00:28.608Z,9.90
2019-01-21T21:02:57.826Z,9.90
2019-01-21T21:05:26.641Z,9.60
2019-01-21T21:07:55.475Z,9.30
2019-01-21T21:10:24.253Z,9.50
2019-01-21T21:12:53.051Z,10.13
2019-01-21T21:15:24.132Z,9.23
2019-01-21T21:17:52.900Z,9.60
2019-01-21T21:20:21.815Z,9.80
2019-01-21T21:22:50.944Z,9.20
2019-01-21T21:25:20.107Z,9.40
2019-01-21T21:27:48.947Z,9.57
2019-01-21T21:30:28.898Z,9.40
2019-01-21T21:32:58.128Z,9.27
2019-01-21T21:35:27.171Z,8.60
2019-01-21T21:37:56.023Z,8.73
2019-01-21T21:40:24.784Z,9.00
2019-01-21T21:42:53.568Z,9.13
2019-01-21T21:45:22.443Z,8.80
2019-01-21T21:47:51.667Z,9.93
2019-01-21T21:50:23.063Z,9.00
2019-01-21T21:52:51.860Z,9.20
2019-01-21T21:55:20.783Z,10.00
2019-01-21T21:57:49.614Z,9.00
2019-01-21T22:00:20.859Z,9.23
2019-01-21T22:02:49.911Z,9.57
2019-01-21T22:05:19.091Z,8.50
2019-01-21T22:07:48.069Z,8.83
2019-01-21T22:10:19.863Z,8.47
2019-01-21T22:12:49.336Z,8.87
2019-01-21T22:15:19.610Z,9.20
2019-01-21T22:17:48.704Z,9.10
2019-01-21T22:20:19.607Z,9.33
2019-01-21T22:22:48.384Z,8.70
2019-01-21T22:25:17.643Z,9.87
2019-01-21T22:27:46.231Z,8.90
2019-01-21T22:30:19.587Z,8.80
2019-01-21T22:32:48.781Z,8.30
2019-01-21T22:35:17.463Z,9.20
2019-01-21T22:37:46.429Z,8.80
2019-01-21T22:40:16.788Z,8.40
2019-01-21T22:42:45.609Z,8.90
2019-01-21T22:45:14.885Z,8.50
2019-01-21T22:47:43.535Z,9.03
2019-01-21T22:50:13.385Z,8.50
2019-01-21T22:52:42.258Z,9.33
2019-01-21T22:55:12.056Z,9.50
2019-01-21T22:57:41.220Z,8.90
2019-01-21T23:00:16.288Z,9.43
2019-01-21T23:02:45.297Z,8.47
2019-01-21T23:05:13.973Z,8.30
2019-01-21T23:07:42.700Z,8.67
2019-01-21T23:10:11.620Z,9.50
2019-01-21T23:12:40.452Z,8.67
2019-01-21T23:15:09.477Z,8.70
2019-01-21T23:17:38.138Z,9.40
2019-01-21T23:20:07.127Z,8.97
2019-01-21T23:22:35.707Z,8.87
2019-01-21T23:25:04.515Z,9.80
2019-01-21T23:27:33.092Z,9.33
2019-01-21T23:30:01.766Z,9.40
2019-01-21T23:32:30.363Z,8.57
2019-01-21T23:34:59.031Z,9.50
2019-01-21T23:37:27.619Z,8.80
2019-01-21T23:39:56.224Z,9.00
2019-01-21T23:42:25.212Z,8.80
2019-01-21T23:44:54.076Z,8.73
2019-01-21T23:47:22.666Z,9.40
2019-01-21T23:49:51.248Z,9.13
2019-01-21T23:52:19.853Z,8.23
2019-01-21T23:54:48.717Z,9.43
2019-01-21T23:57:17.385Z,8.67
2019-01-21T23:59:45.945Z,8.77
